createdAt,value
2019-03-26T00:00:32.632Z,1019.94
2019-03-26T00:01:32.624Z,1019.96
2019-03-26T00:02:32.621Z,1019.96
2019-03-26T00:03:32.616Z,1019.95
2019-03-26T00:04:32.601Z,1019.96
2019-03-26T00:05:32.592Z,1020.01
2019-03-26T00:06:32.594Z,1019.95
2019-03-26T00:07:32.582Z,1019.92
2019-03-26T00:08:32.578Z,1019.92
2019-03-26T00:09:32.569Z,1019.94
2019-03-26T00:10:32.586Z,1019.89
2019-03-26T00:11:32.546Z,1019.91
2019-03-26T00:12:32.564Z,1019.89
2019-03-26T00:13:32.529Z,1019.90
2019-03-26T00:14:32.527Z,1019.89
2019-03-26T00:15:32.521Z,1019.88
2019-03-26T00:16:32.513Z,1019.94
2019-03-26T00:17:32.502Z,1019.94
2019-03-26T00:18:32.489Z,1019.99
2019-03-26T00:19:32.481Z,1019.98
2019-03-26T00:20:32.484Z,1019.97
2019-03-26T00:21:32.471Z,1020.02
2019-03-26T00:22:32.459Z,1019.98
2019-03-26T00:23:32.453Z,1020.00
2019-03-26T00:24:32.445Z,1020.03
2019-03-26T00:25:32.434Z,1019.98
2019-03-26T00:26:32.432Z,1019.89
2019-03-26T00:27:32.428Z,1019.95
2019-03-26T00:28:32.414Z,1019.87
2019-03-26T00:29:32.411Z,1019.92
2019-03-26T00:30:32.398Z,1019.87
2019-03-26T00:31:32.391Z,1019.88
2019-03-26T00:32:32.377Z,1019.92
2019-03-26T00:33:36.621Z,1019.91
2019-03-26T00:34:32.370Z,1019.87
2019-03-26T00:35:32.360Z,1019.84
2019-03-26T00:36:32.348Z,1019.85
2019-03-26T00:37:32.339Z,1019.86
2019-03-26T00:38:32.353Z,1019.87
2019-03-26T00:39:32.331Z,1019.85
2019-03-26T00:40:32.326Z,1019.85
2019-03-26T00:41:32.311Z,1019.86
2019-03-26T00:42:32.299Z,1019.91
2019-03-26T00:43:32.295Z,1019.87
2019-03-26T00:44:32.283Z,1019.86
2019-03-26T00:45:32.280Z,1019.84
2019-03-26T00:46:32.273Z,1019.83
2019-03-26T00:47:32.264Z,1019.84
2019-03-26T00:48:32.264Z,1019.85
2019-03-26T00:49:32.248Z,1019.86
2019-03-26T00:50:32.244Z,1019.88
2019-03-26T00:51:32.228Z,1019.87
2019-03-26T00:52:32.227Z,1019.93
2019-03-26T00:53:32.216Z,1019.95
2019-03-26T00:54:32.216Z,1019.95
2019-03-26T00:55:32.200Z,1019.94
2019-03-26T00:56:32.187Z,1019.95
2019-03-26T00:57:32.180Z,1019.95
2019-03-26T00:58:32.188Z,1019.97
2019-03-26T00:59:32.172Z,1019.98
2019-03-26T01:00:32.164Z,1020.01
2019-03-26T01:01:32.154Z,1019.96
2019-03-26T01:02:32.142Z,1019.91
2019-03-26T01:03:32.133Z,1019.94
2019-03-26T01:04:33.390Z,1019.95
2019-03-26T01:05:32.115Z,1019.93
2019-03-26T01:06:32.115Z,1019.92
2019-03-26T01:07:32.106Z,1019.90
2019-03-26T01:08:32.099Z,1019.92
2019-03-26T01:09:32.096Z,1019.92
2019-03-26T01:10:32.085Z,1019.96
2019-03-26T01:11:32.076Z,1019.92
2019-03-26T01:12:32.076Z,1019.94
2019-03-26T01:13:32.056Z,1019.97
2019-03-26T01:14:32.051Z,1019.92
2019-03-26T01:15:32.037Z,1019.91
2019-03-26T01:16:32.027Z,1019.93
2019-03-26T01:17:32.019Z,1019.95
2019-03-26T01:18:32.024Z,1019.91
2019-03-26T01:19:32.018Z,1019.95
2019-03-26T01:20:32.003Z,1019.96
2019-03-26T01:21:31.993Z,1019.93
2019-03-26T01:22:31.980Z,1019.87
2019-03-26T01:23:31.971Z,1019.90
2019-03-26T01:24:31.976Z,1019.88
2019-03-26T01:25:31.966Z,1019.91
2019-03-26T01:26:31.956Z,1019.89
2019-03-26T01:27:31.941Z,1019.90
2019-03-26T01:28:31.931Z,1019.84
2019-03-26T01:29:31.944Z,1019.86
2019-03-26T01:30:31.921Z,1019.88
2019-03-26T01:31:31.922Z,1019.86
2019-03-26T01:32:31.905Z,1019.83
2019-03-26T01:33:31.902Z,1019.84
2019-03-26T01:34:45.201Z,1019.80
2019-03-26T01:35:31.877Z,1019.76
2019-03-26T01:36:31.868Z,1019.76
2019-03-26T01:37:31.863Z,1019.78
2019-03-26T01:38:31.860Z,1019.81
2019-03-26T01:39:31.851Z,1019.85
2019-03-26T01:40:31.840Z,1019.80
2019-03-26T01:41:31.828Z,1019.77
2019-03-26T01:42:31.832Z,1019.74
2019-03-26T01:43:31.819Z,1019.78
2019-03-26T01:44:31.810Z,1019.79
2019-03-26T01:45:31.802Z,1019.86
2019-03-26T01:46:31.789Z,1019.86
2019-03-26T01:47:31.791Z,1019.80
2019-03-26T01:48:31.773Z,1019.80
2019-03-26T01:49:31.766Z,1019.78
2019-03-26T01:50:31.761Z,1019.86
2019-03-26T01:51:31.773Z,1019.82
2019-03-26T01:52:31.749Z,1019.88
2019-03-26T01:53:31.737Z,1019.87
2019-03-26T01:54:31.739Z,1019.83
2019-03-26T01:55:31.723Z,1019.82
2019-03-26T01:56:31.710Z,1019.82
2019-03-26T01:57:31.710Z,1019.83
2019-03-26T01:58:31.700Z,1019.79
2019-03-26T01:59:31.684Z,1019.79
2019-03-26T02:00:31.673Z,1019.84
2019-03-26T02:01:31.669Z,1019.81
2019-03-26T02:02:31.664Z,1019.81
2019-03-26T02:03:31.657Z,1019.78
2019-03-26T02:04:31.650Z,1019.72
2019-03-26T02:05:31.639Z,1019.78
2019-03-26T02:06:31.634Z,1019.78
2019-03-26T02:07:31.617Z,1019.82
2019-03-26T02:08:31.659Z,1019.82
2019-03-26T02:09:31.601Z,1019.82
2019-03-26T02:10:31.600Z,1019.86
2019-03-26T02:11:31.590Z,1019.83
2019-03-26T02:12:31.577Z,1019.87
2019-03-26T02:13:31.575Z,1019.89
2019-03-26T02:14:31.569Z,1019.89
2019-03-26T02:15:31.559Z,1019.88
2019-03-26T02:16:31.558Z,1019.87
2019-03-26T02:17:31.566Z,1019.86
2019-03-26T02:18:31.533Z,1019.85
2019-03-26T02:19:31.522Z,1019.79
2019-03-26T02:20:31.513Z,1019.78
2019-03-26T02:21:31.504Z,1019.76
2019-03-26T02:22:31.501Z,1019.77
2019-03-26T02:23:31.497Z,1019.78
2019-03-26T02:24:31.487Z,1019.79
2019-03-26T02:25:31.480Z,1019.82
2019-03-26T02:26:31.494Z,1019.82
2019-03-26T02:27:31.458Z,1019.86
2019-03-26T02:28:31.452Z,1019.85
2019-03-26T02:29:31.445Z,1019.85
2019-03-26T02:30:31.435Z,1019.83
2019-03-26T02:31:31.426Z,1019.84
2019-03-26T02:32:31.416Z,1019.84
2019-03-26T02:33:31.415Z,1019.82
2019-03-26T02:34:31.405Z,1019.81
2019-03-26T02:35:31.405Z,1019.80
2019-03-26T02:36:31.394Z,1019.86
2019-03-26T02:37:31.389Z,1019.81
2019-03-26T02:38:31.373Z,1019.87
2019-03-26T02:39:31.367Z,1019.89
2019-03-26T02:40:31.359Z,1019.89
2019-03-26T02:41:31.345Z,1019.90
2019-03-26T02:42:31.344Z,1019.91
2019-03-26T02:43:31.331Z,1019.93
2019-03-26T02:44:31.318Z,1019.97
2019-03-26T02:45:31.317Z,1019.99
2019-03-26T02:46:31.306Z,1019.98
2019-03-26T02:47:31.301Z,1020.00
2019-03-26T02:48:31.295Z,1020.02
2019-03-26T02:49:31.295Z,1020.05
2019-03-26T02:50:31.274Z,1019.96
2019-03-26T02:51:31.266Z,1020.03
2019-03-26T02:52:31.368Z,1019.99
2019-03-26T02:53:31.259Z,1020.00
2019-03-26T02:54:31.326Z,1019.99
2019-03-26T02:55:31.233Z,1019.98
2019-03-26T02:56:31.226Z,1019.99
2019-03-26T02:57:31.220Z,1019.97
2019-03-26T02:58:31.225Z,1019.96
2019-03-26T02:59:31.203Z,1019.94
2019-03-26T03:00:31.198Z,1019.91
2019-03-26T03:01:31.181Z,1019.91
2019-03-26T03:02:31.183Z,1019.97
2019-03-26T03:03:31.178Z,1019.91
2019-03-26T03:04:31.169Z,1019.93
2019-03-26T03:05:35.737Z,1019.88
2019-03-26T03:06:31.149Z,1019.86
2019-03-26T03:07:31.131Z,1019.85
2019-03-26T03:08:31.125Z,1019.90
2019-03-26T03:09:31.117Z,1019.84
2019-03-26T03:10:31.116Z,1019.80
2019-03-26T03:11:31.115Z,1019.77
2019-03-26T03:12:31.112Z,1019.82
2019-03-26T03:13:31.088Z,1019.78
2019-03-26T03:14:31.085Z,1019.82
2019-03-26T03:15:31.064Z,1019.75
2019-03-26T03:16:31.073Z,1019.71
2019-03-26T03:17:31.056Z,1019.74
2019-03-26T03:18:31.045Z,1019.70
2019-03-26T03:19:31.039Z,1019.70
2019-03-26T03:20:31.025Z,1019.72
2019-03-26T03:21:31.017Z,1019.75
2019-03-26T03:22:31.062Z,1019.74
2019-03-26T03:23:31.008Z,1019.74
2019-03-26T03:24:31.000Z,1019.74
2019-03-26T03:25:30.992Z,1019.70
2019-03-26T03:26:31.058Z,1019.70
2019-03-26T03:27:30.968Z,1019.66
2019-03-26T03:28:30.959Z,1019.69
2019-03-26T03:29:30.956Z,1019.76
2019-03-26T03:30:30.949Z,1019.72
2019-03-26T03:31:30.952Z,1019.73
2019-03-26T03:32:31.050Z,1019.70
2019-03-26T03:33:30.924Z,1019.69
2019-03-26T03:34:30.967Z,1019.72
2019-03-26T03:35:30.907Z,1019.70
2019-03-26T03:36:30.900Z,1019.71
2019-03-26T03:37:30.892Z,1019.65
2019-03-26T03:38:30.883Z,1019.63
2019-03-26T03:39:30.877Z,1019.60
2019-03-26T03:40:30.869Z,1019.64
2019-03-26T03:41:30.862Z,1019.65
2019-03-26T03:42:30.855Z,1019.63
2019-03-26T03:43:30.845Z,1019.62
2019-03-26T03:44:30.839Z,1019.58
2019-03-26T03:45:30.828Z,1019.61
2019-03-26T03:46:30.818Z,1019.60
2019-03-26T03:47:30.806Z,1019.56
2019-03-26T03:48:30.952Z,1019.60
2019-03-26T03:49:30.793Z,1019.60
2019-03-26T03:50:30.819Z,1019.54
2019-03-26T03:51:30.777Z,1019.56
2019-03-26T03:52:30.762Z,1019.51
2019-03-26T03:53:30.765Z,1019.47
2019-03-26T03:54:30.756Z,1019.48
2019-03-26T03:55:30.746Z,1019.48
2019-03-26T03:56:30.735Z,1019.52
2019-03-26T03:57:30.727Z,1019.52
2019-03-26T03:58:30.715Z,1019.50
2019-03-26T03:59:30.712Z,1019.46
2019-03-26T04:00:30.697Z,1019.50
2019-03-26T04:01:30.705Z,1019.47
2019-03-26T04:02:30.689Z,1019.45
2019-03-26T04:03:30.682Z,1019.44
2019-03-26T04:04:30.676Z,1019.50
2019-03-26T04:05:30.661Z,1019.49
2019-03-26T04:06:30.656Z,1019.49
2019-03-26T04:07:30.648Z,1019.52
2019-03-26T04:08:30.640Z,1019.55
2019-03-26T04:09:30.629Z,1019.51
2019-03-26T04:10:30.617Z,1019.52
2019-03-26T04:11:30.608Z,1019.48
2019-03-26T04:12:30.601Z,1019.54
2019-03-26T04:13:30.593Z,1019.54
2019-03-26T04:14:30.588Z,1019.55
2019-03-26T04:15:34.604Z,1019.51
2019-03-26T04:16:30.571Z,1019.42
2019-03-26T04:17:30.562Z,1019.53
2019-03-26T04:18:30.551Z,1019.51
2019-03-26T04:19:30.549Z,1019.47
2019-03-26T04:20:30.541Z,1019.45
2019-03-26T04:21:30.531Z,1019.44
2019-03-26T04:22:30.518Z,1019.47
2019-03-26T04:23:30.512Z,1019.47
2019-03-26T04:24:30.501Z,1019.49
2019-03-26T04:25:30.512Z,1019.47
2019-03-26T04:26:30.490Z,1019.45
2019-03-26T04:27:30.486Z,1019.42
2019-03-26T04:28:30.473Z,1019.43
2019-03-26T04:29:30.486Z,1019.37
2019-03-26T04:30:30.452Z,1019.44
2019-03-26T04:31:30.452Z,1019.40
2019-03-26T04:32:30.437Z,1019.43
2019-03-26T04:33:30.436Z,1019.42
2019-03-26T04:34:30.438Z,1019.35
2019-03-26T04:35:30.421Z,1019.38
2019-03-26T04:36:30.406Z,1019.39
2019-03-26T04:37:30.396Z,1019.36
2019-03-26T04:38:30.410Z,1019.41
2019-03-26T04:39:30.384Z,1019.39
2019-03-26T04:40:30.385Z,1019.38
2019-03-26T04:41:30.369Z,1019.43
2019-03-26T04:42:30.352Z,1019.43
2019-03-26T04:43:30.347Z,1019.41
2019-03-26T04:44:30.336Z,1019.39
2019-03-26T04:45:30.328Z,1019.40
2019-03-26T04:46:30.328Z,1019.42
2019-03-26T04:47:30.316Z,1019.45
2019-03-26T04:48:30.312Z,1019.45
2019-03-26T04:49:30.302Z,1019.46
2019-03-26T04:50:30.291Z,1019.49
2019-03-26T04:51:30.280Z,1019.51
2019-03-26T04:52:30.274Z,1019.53
2019-03-26T04:53:30.268Z,1019.59
2019-03-26T04:54:30.254Z,1019.65
2019-03-26T04:55:30.245Z,1019.62
2019-03-26T04:56:30.240Z,1019.63
2019-03-26T04:57:30.227Z,1019.63
2019-03-26T04:58:30.225Z,1019.61
2019-03-26T04:59:30.218Z,1019.66
2019-03-26T05:00:30.212Z,1019.64
2019-03-26T05:01:30.201Z,1019.68
2019-03-26T05:02:30.186Z,1019.63
2019-03-26T05:03:30.178Z,1019.57
2019-03-26T05:04:30.173Z,1019.65
2019-03-26T05:05:30.175Z,1019.65
2019-03-26T05:06:37.840Z,1019.72
2019-03-26T05:07:30.157Z,1019.65
2019-03-26T05:08:30.140Z,1019.66
2019-03-26T05:09:30.129Z,1019.73
2019-03-26T05:10:30.127Z,1019.69
2019-03-26T05:11:30.122Z,1019.73
2019-03-26T05:12:30.109Z,1019.74
2019-03-26T05:13:30.104Z,1019.74
2019-03-26T05:14:30.089Z,1019.73
2019-03-26T05:15:30.087Z,1019.72
2019-03-26T05:16:30.072Z,1019.69
2019-03-26T05:17:30.063Z,1019.69
2019-03-26T05:18:30.063Z,1019.80
2019-03-26T05:19:30.060Z,1019.77
2019-03-26T05:20:30.046Z,1019.76
2019-03-26T05:21:30.036Z,1019.78
2019-03-26T05:22:30.024Z,1019.77
2019-03-26T05:23:30.014Z,1019.76
2019-03-26T05:24:30.015Z,1019.78
2019-03-26T05:25:30.011Z,1019.81
2019-03-26T05:26:29.989Z,1019.82
2019-03-26T05:27:29.985Z,1019.77
2019-03-26T05:28:29.980Z,1019.89
2019-03-26T05:29:29.971Z,1019.92
2019-03-26T05:30:32.945Z,1019.90
2019-03-26T05:31:30.099Z,1019.95
2019-03-26T05:32:29.945Z,1020.07
2019-03-26T05:33:29.938Z,1020.05
2019-03-26T05:34:29.929Z,1020.03
2019-03-26T05:35:29.917Z,1020.11
2019-03-26T05:36:29.914Z,1019.96
2019-03-26T05:37:29.902Z,1020.01
2019-03-26T05:38:29.898Z,1020.00
2019-03-26T05:39:29.891Z,1020.14
2019-03-26T05:40:29.876Z,1020.05
2019-03-26T05:41:29.894Z,1020.07
2019-03-26T05:42:29.869Z,1020.09
2019-03-26T05:43:29.858Z,1020.20
2019-03-26T05:44:29.858Z,1020.13
2019-03-26T05:45:29.846Z,1020.11
2019-03-26T05:46:29.833Z,1020.04
2019-03-26T05:47:29.825Z,1020.14
2019-03-26T05:48:29.821Z,1020.17
2019-03-26T05:49:29.806Z,1020.13
2019-03-26T05:50:29.803Z,1020.07
2019-03-26T05:51:29.794Z,1020.10
2019-03-26T05:52:29.786Z,1020.09
2019-03-26T05:53:29.787Z,1020.16
2019-03-26T05:54:29.764Z,1020.16
2019-03-26T05:55:29.758Z,1020.18
2019-03-26T05:56:30.648Z,1020.22
2019-03-26T05:57:29.761Z,1020.23
2019-03-26T05:58:29.736Z,1020.20
2019-03-26T05:59:29.729Z,1020.24
2019-03-26T06:00:29.718Z,1020.20
2019-03-26T06:01:29.717Z,1020.20
2019-03-26T06:02:29.712Z,1020.24
2019-03-26T06:03:29.701Z,1020.19
2019-03-26T06:04:29.716Z,1020.33
2019-03-26T06:05:29.689Z,1020.40
2019-03-26T06:06:29.672Z,1020.23
2019-03-26T06:07:31.318Z,1020.27
2019-03-26T06:08:29.655Z,1020.24
2019-03-26T06:09:29.652Z,1020.26
2019-03-26T06:10:29.644Z,1020.20
2019-03-26T06:11:29.643Z,1020.25
2019-03-26T06:12:29.622Z,1020.19
2019-03-26T06:13:29.621Z,1020.28
2019-03-26T06:14:29.617Z,1020.21
2019-03-26T06:15:29.610Z,1020.21
2019-03-26T06:16:38.417Z,1020.21
2019-03-26T06:17:29.587Z,1020.25
2019-03-26T06:18:29.574Z,1020.24
2019-03-26T06:19:29.570Z,1020.29
2019-03-26T06:20:29.589Z,1020.25
2019-03-26T06:21:29.562Z,1020.25
2019-03-26T06:22:29.590Z,1020.21
2019-03-26T06:23:29.541Z,1020.25
2019-03-26T06:24:29.531Z,1020.25
2019-03-26T06:25:29.522Z,1020.20
2019-03-26T06:26:29.509Z,1020.21
2019-03-26T06:27:29.505Z,1020.16
2019-03-26T06:28:29.506Z,1020.17
2019-03-26T06:29:29.492Z,1020.16
2019-03-26T06:30:29.488Z,1020.09
2019-03-26T06:31:29.470Z,1020.11
2019-03-26T06:32:29.461Z,1020.03
2019-03-26T06:33:29.454Z,1019.97
2019-03-26T06:34:29.453Z,1020.08
2019-03-26T06:35:29.445Z,1020.04
2019-03-26T06:36:29.435Z,1020.11
2019-03-26T06:37:29.426Z,1020.02
2019-03-26T06:38:29.415Z,1020.06
2019-03-26T06:39:29.407Z,1020.03
2019-03-26T06:40:29.411Z,1020.11
2019-03-26T06:41:29.389Z,1020.06
2019-03-26T06:42:29.387Z,1020.12
2019-03-26T06:43:29.378Z,1020.13
2019-03-26T06:44:29.415Z,1020.15
2019-03-26T06:45:29.357Z,1020.12
2019-03-26T06:46:29.351Z,1020.16
2019-03-26T06:47:29.345Z,1020.16
2019-03-26T06:48:29.345Z,1020.16
2019-03-26T06:49:29.367Z,1020.12
2019-03-26T06:50:29.316Z,1020.14
2019-03-26T06:51:29.306Z,1020.13
2019-03-26T06:52:29.301Z,1020.12
2019-03-26T06:53:29.292Z,1020.10
2019-03-26T06:54:29.295Z,1020.08
2019-03-26T06:55:29.282Z,1020.10
2019-03-26T06:56:29.276Z,1020.05
2019-03-26T06:57:35.430Z,1020.06
2019-03-26T06:58:29.255Z,1020.02
2019-03-26T06:59:29.249Z,1020.08
2019-03-26T07:00:29.243Z,1020.11
2019-03-26T07:01:29.306Z,1020.08
2019-03-26T07:02:29.261Z,1020.10
2019-03-26T07:03:29.218Z,1020.11
2019-03-26T07:04:29.222Z,1020.12
2019-03-26T07:05:29.202Z,1020.16
2019-03-26T07:06:29.238Z,1020.17
2019-03-26T07:07:31.808Z,1020.21
2019-03-26T07:08:29.214Z,1020.13
2019-03-26T07:09:29.176Z,1020.13
2019-03-26T07:10:29.164Z,1020.13
2019-03-26T07:11:29.154Z,1020.20
2019-03-26T07:12:29.145Z,1020.21
2019-03-26T07:13:29.138Z,1020.20
2019-03-26T07:14:29.137Z,1020.21
2019-03-26T07:15:29.129Z,1020.25
2019-03-26T07:16:29.116Z,1020.21
2019-03-26T07:17:29.408Z,1020.22
2019-03-26T07:18:29.114Z,1020.25
2019-03-26T07:19:29.098Z,1020.19
2019-03-26T07:20:29.094Z,1020.19
2019-03-26T07:21:29.083Z,1020.21
2019-03-26T07:22:29.072Z,1020.17
2019-03-26T07:23:29.066Z,1020.18
2019-03-26T07:24:29.077Z,1020.21
2019-03-26T07:25:29.048Z,1020.17
2019-03-26T07:26:29.044Z,1020.22
2019-03-26T07:27:29.038Z,1020.24
2019-03-26T07:28:29.029Z,1020.22
2019-03-26T07:29:29.024Z,1020.23
2019-03-26T07:30:29.011Z,1020.24
2019-03-26T07:31:29.003Z,1020.22
2019-03-26T07:32:29.002Z,1020.20
2019-03-26T07:33:28.996Z,1020.17
2019-03-26T07:34:28.981Z,1020.16
2019-03-26T07:35:28.973Z,1020.07
2019-03-26T07:36:28.965Z,1020.06
2019-03-26T07:37:28.960Z,1020.07
2019-03-26T07:38:28.962Z,1020.07
2019-03-26T07:39:28.953Z,1020.03
2019-03-26T07:40:28.948Z,1020.06
2019-03-26T07:41:28.939Z,1020.06
2019-03-26T07:42:28.926Z,1020.02
2019-03-26T07:43:28.914Z,1020.06
2019-03-26T07:44:28.907Z,1019.98
2019-03-26T07:45:28.900Z,1019.93
2019-03-26T07:46:28.897Z,1019.97
2019-03-26T07:47:28.890Z,1020.01
2019-03-26T07:48:28.874Z,1020.00
2019-03-26T07:49:28.869Z,1020.02
2019-03-26T07:50:28.874Z,1020.08
2019-03-26T07:51:28.872Z,1020.04
2019-03-26T07:52:28.852Z,1019.99
2019-03-26T07:53:28.845Z,1019.95
2019-03-26T07:54:28.862Z,1019.95
2019-03-26T07:55:28.829Z,1019.94
2019-03-26T07:56:28.821Z,1019.92
2019-03-26T07:57:28.833Z,1019.88
2019-03-26T07:58:28.810Z,1019.87
2019-03-26T07:59:28.804Z,1019.78
2019-03-26T08:00:28.799Z,1019.78
2019-03-26T08:01:28.792Z,1019.79
2019-03-26T08:02:28.775Z,1019.82
2019-03-26T08:03:28.770Z,1019.76
2019-03-26T08:04:28.771Z,1019.76
2019-03-26T08:05:29.925Z,1019.79
2019-03-26T08:06:28.751Z,1019.74
2019-03-26T08:07:28.741Z,1019.70
2019-03-26T08:08:28.733Z,1019.68
2019-03-26T08:09:31.617Z,1019.69
2019-03-26T08:10:28.723Z,1019.74
2019-03-26T08:11:28.716Z,1019.69
2019-03-26T08:12:28.706Z,1019.64
2019-03-26T08:13:28.719Z,1019.67
2019-03-26T08:14:28.725Z,1019.57
2019-03-26T08:15:28.682Z,1019.52
2019-03-26T08:16:28.758Z,1019.56
2019-03-26T08:17:28.666Z,1019.51
2019-03-26T08:18:28.671Z,1019.50
2019-03-26T08:19:28.659Z,1019.54
2019-03-26T08:20:28.645Z,1019.68
2019-03-26T08:21:28.641Z,1019.55
2019-03-26T08:22:28.637Z,1019.50
2019-03-26T08:23:28.638Z,1019.47
2019-03-26T08:24:28.623Z,1019.46
2019-03-26T08:25:28.618Z,1019.45
2019-03-26T08:26:28.601Z,1019.47
2019-03-26T08:27:28.597Z,1019.52
2019-03-26T08:28:28.589Z,1019.50
2019-03-26T08:29:28.586Z,1019.49
2019-03-26T08:30:28.579Z,1019.50
2019-03-26T08:31:28.573Z,1019.50
2019-03-26T08:32:28.564Z,1019.43
2019-03-26T08:33:28.564Z,1019.55
2019-03-26T08:34:28.548Z,1019.63
2019-03-26T08:35:28.541Z,1019.49
2019-03-26T08:36:28.537Z,1019.59
2019-03-26T08:37:28.529Z,1019.52
2019-03-26T08:38:28.525Z,1019.47
2019-03-26T08:39:28.512Z,1019.46
2019-03-26T08:40:28.505Z,1019.48
2019-03-26T08:41:28.496Z,1019.46
2019-03-26T08:42:28.499Z,1019.49
2019-03-26T08:43:28.487Z,1019.49
2019-03-26T08:44:28.481Z,1019.50
2019-03-26T08:45:28.476Z,1019.42
2019-03-26T08:46:28.462Z,1019.51
2019-03-26T08:47:28.455Z,1019.50
2019-03-26T08:48:28.450Z,1019.52
2019-03-26T08:49:30.884Z,1019.49
2019-03-26T08:50:28.441Z,1019.54
2019-03-26T08:51:28.433Z,1019.52
2019-03-26T08:52:28.420Z,1019.65
2019-03-26T08:53:28.419Z,1019.72
2019-03-26T08:54:28.414Z,1019.70
2019-03-26T08:55:28.405Z,1019.67
2019-03-26T08:56:28.396Z,1019.65
2019-03-26T08:57:28.461Z,1019.67
2019-03-26T08:58:28.379Z,1019.69
2019-03-26T08:59:28.374Z,1019.68
2019-03-26T09:00:28.364Z,1019.67
2019-03-26T09:01:28.357Z,1019.59
2019-03-26T09:02:28.361Z,1019.47
2019-03-26T09:03:28.357Z,1019.55
2019-03-26T09:04:28.343Z,1019.52
2019-03-26T09:05:28.336Z,1019.58
2019-03-26T09:06:28.324Z,1019.53
2019-03-26T09:07:28.317Z,1019.54
2019-03-26T09:08:28.321Z,1019.50
2019-03-26T09:09:28.312Z,1019.58
2019-03-26T09:10:28.301Z,1019.53
2019-03-26T09:11:28.292Z,1019.56
2019-03-26T09:12:28.281Z,1019.56
2019-03-26T09:13:28.275Z,1019.55
2019-03-26T09:14:28.273Z,1019.52
2019-03-26T09:15:28.266Z,1019.56
2019-03-26T09:16:28.260Z,1019.57
2019-03-26T09:17:28.257Z,1019.48
2019-03-26T09:18:28.240Z,1019.49
2019-03-26T09:19:28.235Z,1019.53
2019-03-26T09:20:28.225Z,1019.58
2019-03-26T09:21:28.219Z,1019.53
2019-03-26T09:22:28.222Z,1019.57
2019-03-26T09:23:28.213Z,1019.57
2019-03-26T09:24:28.204Z,1019.57
2019-03-26T09:25:28.194Z,1019.61
2019-03-26T09:26:28.192Z,1019.53
2019-03-26T09:27:28.184Z,1019.58
2019-03-26T09:28:28.179Z,1019.49
2019-03-26T09:29:28.172Z,1019.58
2019-03-26T09:30:28.160Z,1019.50
2019-03-26T09:31:28.153Z,1019.45
2019-03-26T09:32:28.148Z,1019.47
2019-03-26T09:33:28.166Z,1019.56
2019-03-26T09:34:28.143Z,1019.49
2019-03-26T09:35:28.131Z,1019.54
2019-03-26T09:36:28.126Z,1019.54
2019-03-26T09:37:28.119Z,1019.51
2019-03-26T09:38:38.218Z,1019.47
2019-03-26T09:39:28.100Z,1019.46
2019-03-26T09:40:28.099Z,1019.35
2019-03-26T09:41:28.092Z,1019.30
2019-03-26T09:42:28.082Z,1019.42
2019-03-26T09:43:28.071Z,1019.39
2019-03-26T09:44:30.301Z,1019.38
2019-03-26T09:45:29.382Z,1019.42
2019-03-26T09:46:29.183Z,1019.46
2019-03-26T09:47:28.053Z,1019.34
2019-03-26T09:48:28.044Z,1019.34
2019-03-26T09:49:28.038Z,1019.33
2019-03-26T09:50:28.027Z,1019.36
2019-03-26T09:51:28.019Z,1019.47
2019-03-26T09:52:28.011Z,1019.45
2019-03-26T09:53:28.007Z,1019.47
2019-03-26T09:54:28.004Z,1019.40
2019-03-26T09:55:28.003Z,1019.43
2019-03-26T09:56:31.972Z,1019.44
2019-03-26T09:57:27.986Z,1019.35
2019-03-26T09:58:27.988Z,1019.42
2019-03-26T09:59:27.974Z,1019.37
2019-03-26T10:00:27.991Z,1019.41
2019-03-26T10:01:27.956Z,1019.37
2019-03-26T10:02:27.952Z,1019.40
2019-03-26T10:03:27.948Z,1019.29
2019-03-26T10:04:27.932Z,1019.40
2019-03-26T10:05:27.927Z,1019.45
2019-03-26T10:06:27.927Z,1019.45
2019-03-26T10:07:27.920Z,1019.38
2019-03-26T10:08:27.910Z,1019.40
2019-03-26T10:09:27.905Z,1019.47
2019-03-26T10:10:27.896Z,1019.47
2019-03-26T10:11:27.887Z,1019.38
2019-03-26T10:12:27.886Z,1019.50
2019-03-26T10:13:27.885Z,1019.31
2019-03-26T10:14:27.866Z,1019.26
2019-03-26T10:15:27.892Z,1019.22
2019-03-26T10:16:27.853Z,1019.40
2019-03-26T10:17:27.846Z,1019.29
2019-03-26T10:18:27.846Z,1019.32
2019-03-26T10:19:27.840Z,1019.39
2019-03-26T10:20:27.833Z,1019.36
2019-03-26T10:21:27.942Z,1019.36
2019-03-26T10:22:27.813Z,1019.38
2019-03-26T10:23:27.807Z,1019.30
2019-03-26T10:24:27.799Z,1019.27
2019-03-26T10:25:27.802Z,1019.30
2019-03-26T10:26:27.797Z,1019.32
2019-03-26T10:27:27.800Z,1019.30
2019-03-26T10:28:27.775Z,1019.30
2019-03-26T10:29:30.467Z,1019.25
2019-03-26T10:30:27.766Z,1019.23
2019-03-26T10:31:27.760Z,1019.23
2019-03-26T10:32:27.753Z,1019.24
2019-03-26T10:33:27.747Z,1019.25
2019-03-26T10:34:27.736Z,1019.26
2019-03-26T10:35:27.734Z,1019.30
2019-03-26T10:36:27.720Z,1019.26
2019-03-26T10:37:27.718Z,1019.23
2019-03-26T10:38:27.713Z,1019.29
2019-03-26T10:39:27.709Z,1019.23
2019-03-26T10:40:27.700Z,1019.25
2019-03-26T10:41:27.694Z,1019.24
2019-03-26T10:42:27.682Z,1019.24
2019-03-26T10:43:27.674Z,1019.27
2019-03-26T10:44:27.672Z,1019.24
2019-03-26T10:45:27.663Z,1019.32
2019-03-26T10:46:27.654Z,1019.28
2019-03-26T10:47:27.647Z,1019.40
2019-03-26T10:48:27.640Z,1019.31
2019-03-26T10:49:27.628Z,1019.27
2019-03-26T10:50:27.627Z,1019.18
2019-03-26T10:51:27.622Z,1019.22
2019-03-26T10:52:30.758Z,1019.26
2019-03-26T10:53:27.616Z,1019.15
2019-03-26T10:54:27.592Z,1019.16
2019-03-26T10:55:27.589Z,1019.14
2019-03-26T10:56:27.574Z,1019.10
2019-03-26T10:57:27.565Z,1019.09
2019-03-26T10:58:27.562Z,1019.05
2019-03-26T10:59:27.557Z,1019.04
2019-03-26T11:00:27.541Z,1019.12
2019-03-26T11:01:27.534Z,1019.04
2019-03-26T11:02:27.535Z,1019.05
2019-03-26T11:03:27.526Z,1019.03
2019-03-26T11:04:27.527Z,1019.02
2019-03-26T11:05:27.510Z,1018.98
2019-03-26T11:06:27.504Z,1018.98
2019-03-26T11:07:27.660Z,1019.03
2019-03-26T11:08:27.482Z,1018.96
2019-03-26T11:09:27.528Z,1018.99
2019-03-26T11:10:27.481Z,1018.95
2019-03-26T11:11:27.469Z,1018.93
2019-03-26T11:12:27.462Z,1018.90
2019-03-26T11:13:27.453Z,1018.96
2019-03-26T11:14:27.455Z,1018.99
2019-03-26T11:15:27.439Z,1018.90
2019-03-26T11:16:27.433Z,1018.91
2019-03-26T11:17:27.433Z,1018.87
2019-03-26T11:18:27.416Z,1018.89
2019-03-26T11:19:27.406Z,1018.83
2019-03-26T11:20:27.400Z,1018.92
2019-03-26T11:21:27.395Z,1018.85
2019-03-26T11:22:27.396Z,1018.84
2019-03-26T11:23:27.384Z,1018.79
2019-03-26T11:24:27.371Z,1018.84
2019-03-26T11:25:27.366Z,1018.92
2019-03-26T11:26:27.362Z,1018.94
2019-03-26T11:27:27.365Z,1019.03
2019-03-26T11:28:27.353Z,1019.05
2019-03-26T11:29:27.344Z,1019.02
2019-03-26T11:30:27.332Z,1018.97
2019-03-26T11:31:29.943Z,1018.96
2019-03-26T11:32:27.324Z,1018.95
2019-03-26T11:33:27.312Z,1019.00
2019-03-26T11:34:27.302Z,1019.04
2019-03-26T11:35:27.297Z,1019.07
2019-03-26T11:36:27.289Z,1019.00
2019-03-26T11:37:27.281Z,1019.10
2019-03-26T11:38:27.285Z,1019.11
2019-03-26T11:39:32.613Z,1019.08
2019-03-26T11:40:27.265Z,1019.07
2019-03-26T11:41:27.259Z,1019.14
2019-03-26T11:42:27.251Z,1019.07
2019-03-26T11:43:27.241Z,1019.08
2019-03-26T11:44:27.245Z,1019.06
2019-03-26T11:45:27.234Z,1019.07
2019-03-26T11:46:27.226Z,1019.12
2019-03-26T11:47:27.222Z,1019.04
2019-03-26T11:48:27.219Z,1018.93
2019-03-26T11:49:27.202Z,1018.94
2019-03-26T11:50:27.200Z,1018.98
2019-03-26T11:51:27.190Z,1018.90
2019-03-26T11:52:27.185Z,1018.98
2019-03-26T11:53:27.179Z,1018.97
2019-03-26T11:54:27.169Z,1018.88
2019-03-26T11:55:27.157Z,1018.93
2019-03-26T11:56:27.153Z,1018.92
2019-03-26T11:57:27.147Z,1018.97
2019-03-26T11:58:30.701Z,1018.76
2019-03-26T11:59:27.136Z,1018.80
2019-03-26T12:00:27.158Z,1018.89
2019-03-26T12:01:27.152Z,1018.79
2019-03-26T12:02:27.196Z,1018.82
2019-03-26T12:03:27.106Z,1018.82
2019-03-26T12:04:27.128Z,1018.75
2019-03-26T12:05:27.122Z,1018.76